Time;durP1;ratioP1;P1;durP2;ratioP2;P2;SDS_P1;SDS_P2;PMS_P1;PMS_P2;Temp;Humidity;BMP_temperature;BMP_pressure;BME280_temperature;BME280_humidity;BME280_pressure;Samples;Min_cycle;Max_cycle;Signal;HPM_P1;HPM_P2
2022/04/17 01:42:35;;;;;;;5.75;5.25;;;6.00;68.30;;;;;;4891306;29;20785;-80
2022/04/17 01:48:59;;;;;;;;;;;;;;;;;;;;;
2022/04/17 02:09:37;;;;;;;4.82;4.43;;;5.70;71.30;;;;;;4945417;28;20222;-80
2022/04/17 02:16:39;;;;;;;6.30;4.45;;;5.60;73.00;;;;;;4996665;28;20220;-80
2022/04/17 02:26:37;;;;;;;5.60;4.88;;;5.60;73.50;;;;;;4955718;29;20228;-80
2022/04/17 02:33:33;;;;;;;5.85;5.25;;;5.50;73.80;;;;;;4947358;29;20205;-80
2022/04/17 02:39:30;;;;;;;5.03;4.63;;;5.50;74.80;;;;;;5022191;28;20308;-80
2022/04/17 02:45:46;;;;;;;6.13;4.53;;;5.50;74.90;;;;;;5014580;28;20232;-80
2022/04/17 02:58:19;;;;;;;4.95;4.57;;;5.40;75.90;;;;;;5051222;28;20348;-80
2022/04/17 03:07:32;;;;;;;6.15;5.75;;;5.40;76.30;;;;;;5049514;28;20611;-80
2022/04/17 03:10:27;;;;;;;6.68;5.30;;;5.40;76.50;;;;;;5056507;28;20308;-80
2022/04/17 03:16:27;;;;;;;5.20;4.80;;;5.30;76.90;;;;;;5026869;28;20232;-80
2022/04/17 03:19:32;;;;;;;4.70;4.40;;;5.30;77.00;;;;;;5052705;28;20573;-80
2022/04/17 03:22:45;;;;;;;5.10;4.65;;;5.20;77.10;;;;;;5049299;28;20229;-80
2022/04/17 03:25:53;;;;;;;6.45;5.80;;;5.20;77.50;;;;;;5012309;28;20226;-80
2022/04/17 03:29:17;;;;;;;5.40;4.90;;;5.20;78.00;;;;;;5058621;28;20815;-79
2022/04/17 03:38:45;;;;;;;5.80;5.40;;;5.10;78.50;;;;;;5059582;28;20720;-80
2022/04/17 03:41:51;;;;;;;6.40;5.85;;;5.00;79.00;;;;;;5019374;28;20613;-80
2022/04/17 03:50:22;;;;;;;5.90;5.40;;;5.00;79.50;;;;;;4978407;28;20208;-79
2022/04/17 03:57:05;;;;;;;5.40;4.85;;;4.90;79.10;;;;;;4911407;29;20205;-78
2022/04/17 04:05:52;;;;;;;5.78;4.72;;;4.90;79.80;;;;;;5062671;23;20229;-80
2022/04/17 04:08:18;;;;;;;5.28;4.78;;;4.90;80.10;;;;;;5059823;28;20242;-80
2022/04/17 04:10:45;;;;;;;5.35;4.85;;;4.90;79.90;;;;;;5059753;28;20208;-80
2022/04/17 04:13:12;;;;;;;5.53;5.03;;;4.90;80.10;;;;;;5059570;28;20266;-80
2022/04/17 05:40:46;;;;;;;3.65;3.35;;;5.50;77.40;;;;;;4996297;28;20314;-78
2022/04/17 06:37:43;;;;;;;3.55;3.25;;;7.00;74.10;;;;;;6207792;22;20216;-77
2022/04/17 06:51:24;;;;;;;3.42;3.22;;;7.40;72.40;;;;;;5987307;23;20519;-79
2022/04/17 07:22:03;;;;;;;;;;;;;;;;;;;;;
2022/04/17 08:08:11;;;;;;;3.83;3.10;;;9.20;62.50;;;;;;5924130;24;20730;-81
2022/04/17 08:10:40;;;;;;;3.88;3.47;;;9.30;62.60;;;;;;6031019;23;20576;-78
2022/04/17 08:13:07;;;;;;;3.70;3.40;;;9.40;62.20;;;;;;6113631;23;20184;-78
2022/04/17 08:15:34;;;;;;;3.03;2.83;;;9.50;62.40;;;;;;6156515;23;20575;-79
2022/04/17 08:18:01;;;;;;;3.10;2.75;;;9.60;63.20;;;;;;6156316;23;20659;-78
2022/04/17 08:20:29;;;;;;;5.30;3.83;;;9.70;64.50;;;;;;6157195;23;20179;-80
2022/04/17 08:23:02;;;;;;;4.60;3.60;;;9.80;63.30;;;;;;6157802;23;20179;-79
2022/04/17 08:25:29;;;;;;;3.47;3.10;;;9.90;62.10;;;;;;6158547;23;20203;-80
2022/04/17 08:27:56;;;;;;;3.58;3.38;;;10.00;62.30;;;;;;6157645;23;20200;-80
2022/04/17 08:30:25;;;;;;;3.17;2.97;;;10.10;59.90;;;;;;6156080;23;20857;-81
2022/04/17 08:32:52;;;;;;;2.97;2.67;;;10.20;60.00;;;;;;6157064;23;20179;-81
2022/04/17 08:35:19;;;;;;;3.50;3.25;;;10.20;59.30;;;;;;6156746;23;20227;-79
2022/04/17 08:37:48;;;;;;;2.80;2.60;;;10.40;58.60;;;;;;6157395;23;20181;-80
2022/04/17 08:40:15;;;;;;;2.70;2.60;;;10.40;58.90;;;;;;6157011;23;20779;-79
2022/04/17 08:42:42;;;;;;;3.25;3.05;;;10.50;59.20;;;;;;6159068;23;20408;-79
2022/04/17 08:45:10;;;;;;;3.47;3.23;;;10.60;59.20;;;;;;6160054;23;20200;-80
2022/04/17 08:47:37;;;;;;;2.70;2.43;;;10.70;58.10;;;;;;6160820;23;20443;-79
2022/04/17 08:50:07;;;;;;;3.17;2.40;;;10.80;57.70;;;;;;6160359;23;20417;-79
2022/04/17 08:52:34;;;;;;;2.80;2.60;;;10.90;57.60;;;;;;6160371;23;20416;-79
2022/04/17 08:55:03;;;;;;;2.90;2.70;;;10.90;56.30;;;;;;6159553;23;20433;-79
2022/04/17 08:57:30;;;;;;;5.10;3.00;;;11.00;56.30;;;;;;6170080;23;20423;-80
2022/04/17 08:59:57;;;;;;;2.90;2.63;;;11.10;55.40;;;;;;6189930;23;20413;-81
2022/04/17 09:02:23;;;;;;;3.30;3.00;;;11.30;55.30;;;;;;6189466;23;20416;-80
2022/04/17 09:04:50;;;;;;;2.53;2.33;;;11.30;53.70;;;;;;6189461;23;20433;-80
2022/04/17 09:07:17;;;;;;;3.00;2.70;;;11.30;54.20;;;;;;6191136;23;20427;-80
2022/04/17 09:09:50;;;;;;;2.57;2.37;;;11.30;52.50;;;;;;6189649;23;20459;-79
2022/04/17 09:12:20;;;;;;;3.27;3.00;;;11.30;51.60;;;;;;6189113;23;20943;-79
2022/04/17 09:14:47;;;;;;;2.60;2.17;;;11.30;52.70;;;;;;6188395;23;20438;-79
2022/04/17 09:17:15;;;;;;;2.63;2.43;;;11.30;51.20;;;;;;6188662;23;20404;-79
2022/04/17 09:19:42;;;;;;;3.93;2.40;;;11.40;50.80;;;;;;6188637;23;20782;-79
2022/04/17 09:22:09;;;;;;;1.80;1.70;;;11.50;51.70;;;;;;6188900;23;20420;-79
2022/04/17 09:24:37;;;;;;;2.47;2.27;;;11.60;51.70;;;;;;6189081;23;20440;-79
2022/04/17 09:27:05;;;;;;;2.37;1.90;;;11.70;50.50;;;;;;6188868;23;20909;-79
2022/04/17 09:29:35;;;;;;;3.10;2.73;;;11.70;50.70;;;;;;6188185;23;20452;-79
2022/04/17 09:32:04;;;;;;;2.63;2.53;;;11.90;53.10;;;;;;6187570;23;20892;-79
2022/04/17 09:34:43;;;;;;;3.03;2.83;;;12.00;52.90;;;;;;6189329;23;20744;-81
2022/04/17 09:37:13;;;;;;;2.90;2.03;;;12.20;52.90;;;;;;6190001;23;20423;-81
2022/04/17 09:39:40;;;;;;;2.33;2.13;;;12.30;52.20;;;;;;6191080;23;20402;-81
2022/04/17 09:42:07;;;;;;;2.53;2.33;;;12.50;50.50;;;;;;6190667;23;20413;-79
2022/04/17 09:44:45;;;;;;;2.50;2.30;;;12.50;51.00;;;;;;6190346;23;20495;-79
2022/04/17 09:47:16;;;;;;;2.30;2.10;;;12.70;50.60;;;;;;6191575;23;20398;-79
2022/04/17 09:49:58;;;;;;;2.00;1.90;;;12.90;49.90;;;;;;6190065;23;20455;-80
2022/04/17 09:52:26;;;;;;;2.37;2.23;;;12.90;49.80;;;;;;6190628;23;20461;-82
2022/04/17 09:54:53;;;;;;;2.47;2.20;;;13.00;49.70;;;;;;6190631;23;20791;-80
2022/04/17 09:57:31;;;;;;;2.53;2.33;;;13.10;49.30;;;;;;6191371;23;20414;-80
2022/04/17 10:00:10;;;;;;;2.67;2.57;;;13.20;49.80;;;;;;6188828;23;20525;-81
2022/04/17 10:02:38;;;;;;;2.57;2.40;;;13.30;51.20;;;;;;6188570;23;20461;-81
2022/04/17 10:05:06;;;;;;;3.53;2.20;;;13.40;50.60;;;;;;6188489;23;20430;-81
2022/04/17 10:07:33;;;;;;;3.10;2.20;;;13.40;50.70;;;;;;6189659;23;20413;-80
2022/04/17 10:10:00;;;;;;;2.30;2.13;;;13.60;51.80;;;;;;6189520;23;20446;-80
2022/04/17 10:12:27;;;;;;;2.13;2.03;;;13.70;52.10;;;;;;6190357;23;20414;-81
2022/04/17 10:15:14;;;;;;;1.90;1.73;;;13.90;51.00;;;;;;6189065;23;20471;-81
2022/04/17 10:36:21;;;;;;;2.27;2.17;;;14.70;48.90;;;;;;5949246;23;20432;-80
2022/04/17 13:13:19;;;;;;;;;;;;;;;;;;;;;
2022/04/17 13:22:26;;;;;;;1.20;1.20;;;29.40;26.20;;;;;;6162026;23;20398;-80
2022/04/17 13:25:11;;;;;;;1.63;1.53;;;28.30;25.90;;;;;;6147003;23;20416;-81
2022/04/17 13:28:19;;;;;;;1.90;1.60;;;28.40;26.50;;;;;;6161450;23;20457;-81
2022/04/17 13:30:53;;;;;;;2.23;2.13;;;28.80;26.40;;;;;;6156214;23;20815;-81
2022/04/17 13:34:10;;;;;;;1.60;1.50;;;29.40;26.20;;;;;;6161677;23;20488;-80
2022/04/17 13:38:11;;;;;;;1.93;1.83;;;29.80;26.50;;;;;;6074588;23;20749;-81
2022/04/17 13:39:50;;;;;;;1.80;1.43;;;29.60;25.50;;;;;;6161157;23;20407;-81
2022/04/17 13:42:26;;;;;;;2.47;1.47;;;30.10;24.90;;;;;;6160490;23;20473;-81
2022/04/17 13:44:55;;;;;;;1.43;1.33;;;30.30;24.70;;;;;;6159971;23;20442;-81
2022/04/17 13:47:38;;;;;;;1.70;1.60;;;31.00;24.90;;;;;;6162302;23;20497;-81
2022/04/17 13:50:13;;;;;;;1.50;1.40;;;31.30;24.70;;;;;;6161585;23;20432;-81
2022/04/17 13:52:48;;;;;;;1.83;1.60;;;31.30;24.80;;;;;;6162020;23;20392;-81
2022/04/17 13:55:28;;;;;;;1.37;1.27;;;31.60;24.70;;;;;;6161256;23;20435;-81
2022/04/17 13:58:01;;;;;;;2.43;2.27;;;31.90;24.00;;;;;;6161618;23;20403;-81
2022/04/17 14:00:33;;;;;;;1.73;1.63;;;31.90;22.40;;;;;;6160751;23;20391;-81
2022/04/17 14:03:11;;;;;;;1.50;1.40;;;31.60;22.70;;;;;;6161531;23;20396;-81
2022/04/17 14:05:47;;;;;;;1.50;1.50;;;31.10;23.20;;;;;;6161064;23;20445;-81
2022/04/17 14:08:14;;;;;;;1.70;1.60;;;31.00;23.10;;;;;;6161544;23;20435;-81
2022/04/17 14:10:42;;;;;;;1.87;1.77;;;31.00;22.80;;;;;;6162653;23;20411;-81
2022/04/17 14:13:09;;;;;;;1.50;1.40;;;30.80;22.60;;;;;;6163460;23;20435;-81
2022/04/17 14:15:36;;;;;;;1.90;1.80;;;30.90;22.50;;;;;;6163280;23;20496;-81
2022/04/17 14:18:03;;;;;;;2.17;1.97;;;31.10;22.60;;;;;;6162763;23;20418;-81
2022/04/17 14:20:30;;;;;;;1.60;1.50;;;31.00;22.40;;;;;;6163364;23;20807;-81
2022/04/17 14:22:56;;;;;;;1.67;1.57;;;30.70;22.90;;;;;;6163579;23;20414;-81
2022/04/17 14:25:23;;;;;;;1.90;1.70;;;31.00;23.00;;;;;;6163080;23;20737;-81
2022/04/17 14:27:52;;;;;;;1.47;1.37;;;31.30;22.90;;;;;;6163157;23;20407;-81
2022/04/17 14:30:19;;;;;;;2.00;1.90;;;31.60;21.90;;;;;;6162882;23;20823;-81
2022/04/17 14:32:47;;;;;;;1.40;1.30;;;31.70;22.00;;;;;;6163530;23;20478;-81
2022/04/17 14:35:14;;;;;;;1.63;1.53;;;31.70;22.10;;;;;;6163218;23;20444;-81
2022/04/17 14:37:41;;;;;;;1.90;1.80;;;29.50;21.00;;;;;;6163308;23;20769;-80
2022/04/17 14:40:09;;;;;;;1.70;1.60;;;29.40;22.60;;;;;;6163111;23;20434;-81
2022/04/17 14:42:36;;;;;;;1.43;1.33;;;29.90;23.20;;;;;;6163372;23;20742;-80
2022/04/17 14:45:05;;;;;;;1.60;1.50;;;30.30;22.70;;;;;;6162677;23;20415;-80
2022/04/17 14:47:34;;;;;;;1.77;1.67;;;29.80;20.90;;;;;;6163054;23;20771;-80
2022/04/17 14:50:01;;;;;;;1.70;1.60;;;29.10;21.00;;;;;;6163767;23;20474;-80
2022/04/17 14:52:27;;;;;;;1.93;1.40;;;28.70;21.90;;;;;;6162893;23;20410;-81
2022/04/17 14:54:54;;;;;;;1.50;1.40;;;28.80;23.20;;;;;;6162707;23;20410;-80
2022/04/17 14:57:21;;;;;;;2.13;2.03;;;28.60;23.10;;;;;;6162718;23;20477;-80
2022/04/17 14:59:48;;;;;;;1.50;1.40;;;29.20;22.80;;;;;;6163282;23;20410;-80
2022/04/17 15:02:16;;;;;;;1.57;1.47;;;29.60;22.90;;;;;;6163104;23;20412;-81
2022/04/17 15:04:42;;;;;;;1.53;1.30;;;30.20;22.40;;;;;;6163348;23;20410;-81
2022/04/17 15:07:09;;;;;;;1.60;1.50;;;30.60;21.70;;;;;;6162539;23;20424;-81
2022/04/17 15:09:36;;;;;;;1.70;1.60;;;30.90;21.60;;;;;;6163603;23;20447;-81
2022/04/17 15:12:02;;;;;;;2.03;1.80;;;30.70;20.90;;;;;;6162454;23;20420;-81
2022/04/17 15:14:30;;;;;;;1.90;1.80;;;30.30;21.70;;;;;;6163137;23;20420;-81
2022/04/17 15:16:58;;;;;;;1.77;1.67;;;30.80;21.90;;;;;;6163214;23;20434;-81
2022/04/17 15:19:27;;;;;;;1.63;1.50;;;30.70;21.70;;;;;;6162449;23;20412;-81
2022/04/17 15:21:55;;;;;;;3.10;1.70;;;31.00;20.70;;;;;;6162496;23;20413;-81
2022/04/17 15:24:22;;;;;;;1.97;1.50;;;31.10;20.60;;;;;;6172385;23;20407;-79
2022/04/17 15:26:48;;;;;;;1.70;1.60;;;30.60;20.50;;;;;;6173940;23;20439;-79
2022/04/17 15:29:15;;;;;;;1.70;1.60;;;31.00;20.90;;;;;;6164734;23;20443;-81
2022/04/17 15:31:42;;;;;;;2.67;2.47;;;31.60;21.20;;;;;;6163924;23;20413;-82
2022/04/17 15:34:10;;;;;;;3.40;1.90;;;31.90;20.50;;;;;;6163179;23;20416;-83
2022/04/17 15:36:39;;;;;;;1.47;1.37;;;31.50;20.00;;;;;;6163121;23;20780;-82
2022/04/17 15:39:06;;;;;;;1.30;1.20;;;30.40;20.60;;;;;;6162967;23;20473;-81
2022/04/17 15:41:33;;;;;;;1.57;1.47;;;30.70;20.80;;;;;;6162628;23;20441;-82
2022/04/17 15:49:29;;;;;;;1.80;1.30;;;31.00;21.10;;;;;;6168019;23;20989;-83
2022/04/17 15:51:57;;;;;;;1.60;1.50;;;30.30;20.90;;;;;;6166357;23;20434;-83
2022/04/17 15:54:24;;;;;;;1.80;1.70;;;30.00;21.00;;;;;;6166734;23;20414;-83
2022/04/17 15:56:51;;;;;;;1.70;1.60;;;28.50;20.90;;;;;;6166134;23;20440;-83
2022/04/17 15:59:20;;;;;;;2.37;1.73;;;27.60;22.30;;;;;;6166527;23;21036;-83
2022/04/17 16:01:47;;;;;;;1.63;1.53;;;26.80;22.80;;;;;;6167296;23;20504;-83
2022/04/17 16:04:15;;;;;;;1.77;1.67;;;27.40;23.50;;;;;;6168109;23;20881;-83
2022/04/17 16:06:42;;;;;;;1.90;1.70;;;27.80;23.10;;;;;;6166455;23;20446;-83
2022/04/17 16:09:11;;;;;;;1.67;1.57;;;28.20;23.20;;;;;;6150097;23;20758;-83
2022/04/17 16:15:20;;;;;;;1.63;1.53;;;28.00;22.20;;;;;;6129639;23;20424;-84
2022/04/17 16:17:47;;;;;;;1.63;1.53;;;28.30;22.80;;;;;;6154595;23;20897;-85
2022/04/17 16:20:14;;;;;;;1.70;1.60;;;28.10;22.50;;;;;;6152394;23;20413;-84
2022/04/17 16:22:41;;;;;;;2.40;1.80;;;27.90;23.10;;;;;;6154115;23;20934;-85
2022/04/17 16:25:10;;;;;;;1.60;1.50;;;27.70;23.50;;;;;;6154101;23;20431;-85
2022/04/17 16:27:37;;;;;;;1.40;1.30;;;27.80;23.70;;;;;;6153940;23;20471;-85
2022/04/17 16:30:05;;;;;;;2.83;1.97;;;27.60;23.70;;;;;;6152181;23;21095;-83
2022/04/17 16:32:31;;;;;;;1.90;1.70;;;27.40;23.90;;;;;;6157985;23;20423;-83
2022/04/17 16:34:59;;;;;;;1.53;1.43;;;26.70;23.80;;;;;;6154411;23;20415;-85
2022/04/17 16:37:27;;;;;;;2.07;1.87;;;26.70;23.80;;;;;;6154762;23;20429;-84
2022/04/17 16:39:53;;;;;;;1.50;1.40;;;27.00;24.20;;;;;;6154955;23;20482;-83
2022/04/17 16:42:21;;;;;;;1.87;1.70;;;27.30;24.10;;;;;;6158188;23;20736;-84
2022/04/17 16:44:55;;;;;;;1.60;1.30;;;26.90;23.80;;;;;;6155062;23;20415;-84
2022/04/17 16:47:22;;;;;;;1.47;1.37;;;26.90;24.10;;;;;;6154455;23;20448;-84
2022/04/17 16:49:50;;;;;;;2.67;1.80;;;27.10;24.10;;;;;;6154932;23;20450;-84
2022/04/17 16:52:22;;;;;;;1.80;1.70;;;27.40;24.60;;;;;;6158211;23;20407;-84
2022/04/17 16:54:49;;;;;;;1.97;1.80;;;27.90;24.30;;;;;;6156385;23;20417;-84
2022/04/17 17:00:02;;;;;;;2.27;1.90;;;28.50;24.20;;;;;;6164545;23;20474;-83
2022/04/17 17:02:28;;;;;;;2.00;1.90;;;28.50;23.80;;;;;;6165837;23;20440;-84
2022/04/17 17:04:57;;;;;;;1.57;1.47;;;28.70;23.90;;;;;;6163009;23;20407;-83
2022/04/17 17:07:24;;;;;;;1.60;1.53;;;29.00;24.20;;;;;;6163776;23;20425;-84
2022/04/17 17:09:52;;;;;;;1.70;1.60;;;28.70;23.40;;;;;;6166993;23;20482;-82
2022/04/17 17:12:18;;;;;;;1.87;1.77;;;28.80;23.80;;;;;;6165879;23;20442;-83
2022/04/17 17:14:45;;;;;;;1.87;1.77;;;28.10;23.10;;;;;;6167117;23;20414;-82
2022/04/17 17:17:13;;;;;;;1.67;1.40;;;27.80;23.90;;;;;;6166523;23;20740;-83
2022/04/17 17:19:41;;;;;;;1.53;1.30;;;27.40;23.90;;;;;;6164479;23;20410;-81
2022/04/17 17:22:08;;;;;;;1.60;1.50;;;26.70;24.40;;;;;;6162889;23;20749;-82
2022/04/17 17:24:35;;;;;;;2.23;2.03;;;26.20;25.00;;;;;;6160074;23;20414;-84
2022/04/17 17:27:01;;;;;;;1.93;1.83;;;25.40;25.00;;;;;;6164296;23;20442;-82
2022/04/17 17:29:29;;;;;;;2.30;1.70;;;24.90;26.00;;;;;;6165346;23;20447;-82
2022/04/17 17:31:56;;;;;;;2.00;1.80;;;24.30;26.80;;;;;;6168768;23;20526;-85
2022/04/17 17:34:24;;;;;;;2.63;1.60;;;23.90;26.90;;;;;;6179984;23;20411;-82
2022/04/17 17:36:50;;;;;;;1.70;1.60;;;23.80;27.20;;;;;;6173827;23;20435;-82
2022/04/17 17:39:18;;;;;;;1.87;1.77;;;23.70;27.10;;;;;;6165540;23;20419;-82
2022/04/17 17:41:45;;;;;;;2.93;2.03;;;23.60;26.90;;;;;;6164758;23;20408;-83
2022/04/17 17:44:12;;;;;;;2.40;2.20;;;23.20;27.00;;;;;;6167044;23;20411;-81
2022/04/17 17:46:39;;;;;;;2.43;1.97;;;23.00;27.30;;;;;;6172562;23;20494;-82
2022/04/17 17:49:07;;;;;;;3.20;1.80;;;22.90;27.50;;;;;;6179661;23;20408;-82
2022/04/17 17:51:38;;;;;;;1.73;1.60;;;22.70;27.70;;;;;;6164019;23;20449;-82
2022/04/17 17:54:06;;;;;;;1.80;1.70;;;22.30;27.70;;;;;;6162614;23;20399;-82
2022/04/17 17:56:34;;;;;;;1.70;1.60;;;22.00;28.00;;;;;;6179455;23;20446;-82
2022/04/17 17:59:01;;;;;;;1.90;1.80;;;21.80;28.40;;;;;;6179804;23;20421;-82
2022/04/17 18:01:27;;;;;;;2.60;1.60;;;21.60;28.60;;;;;;6178425;23;20468;-82
2022/04/17 18:03:54;;;;;;;1.60;1.50;;;21.30;28.70;;;;;;6175526;23;20423;-82
2022/04/17 18:06:23;;;;;;;3.60;1.63;;;20.80;29.20;;;;;;6181006;22;20473;-81
2022/04/17 18:15:49;;;;;;;3.33;2.53;;;19.10;29.90;;;;;;6188039;23;20408;-80
2022/04/17 18:18:17;;;;;;;1.83;1.73;;;18.30;31.00;;;;;;6189600;23;20974;-80
2022/04/17 18:20:45;;;;;;;3.73;2.07;;;17.60;31.80;;;;;;6188448;23;20413;-79
2022/04/17 18:23:14;;;;;;;1.90;1.80;;;17.10;32.70;;;;;;6190112;23;20407;-79
2022/04/17 18:25:44;;;;;;;2.60;1.77;;;16.60;33.30;;;;;;6190099;23;20459;-81
2022/04/17 18:28:36;;;;;;;1.70;1.60;;;16.10;34.10;;;;;;6189647;23;20426;-81
2022/04/17 18:31:04;;;;;;;1.50;1.40;;;15.80;34.70;;;;;;6190323;23;20437;-79
2022/04/17 18:33:32;;;;;;;1.50;1.40;;;15.50;35.20;;;;;;6190433;23;20473;-79
2022/04/17 18:36:00;;;;;;;3.57;2.03;;;15.20;35.80;;;;;;6189880;23;20430;-79
2022/04/17 18:38:33;;;;;;;1.90;1.70;;;15.00;36.70;;;;;;6197862;23;20494;-80
2022/04/17 18:41:03;;;;;;;2.10;2.00;;;14.60;36.40;;;;;;6205840;23;20769;-79
2022/04/17 18:43:31;;;;;;;1.60;1.50;;;14.40;37.20;;;;;;6195199;23;20449;-80
2022/04/17 18:46:01;;;;;;;4.50;2.20;;;14.20;37.80;;;;;;6189829;23;20492;-80
2022/04/17 18:48:33;;;;;;;2.20;2.10;;;13.90;38.20;;;;;;6189102;23;20733;-79
2022/04/17 18:51:02;;;;;;;1.70;1.60;;;13.70;38.80;;;;;;6187209;23;20446;-79
2022/04/17 19:14:09;;;;;;;3.10;2.80;;;12.60;40.50;;;;;;6220029;23;20507;-80
2022/04/17 19:16:39;;;;;;;2.53;2.43;;;12.50;40.80;;;;;;6218657;23;20451;-79
2022/04/17 19:19:15;;;;;;;2.50;2.30;;;12.30;41.40;;;;;;6219363;23;20531;-79
2022/04/17 19:27:35;;;;;;;2.07;1.97;;;12.10;42.40;;;;;;6214823;23;20432;-79
2022/04/17 19:30:13;;;;;;;3.47;2.00;;;12.00;42.40;;;;;;6214731;23;20562;-80
2022/04/17 19:35:27;;;;;;;2.27;2.07;;;11.90;42.60;;;;;;6219783;23;20446;-80
2022/04/17 19:37:54;;;;;;;3.47;1.83;;;11.80;43.30;;;;;;6219593;23;20418;-80
2022/04/17 19:40:23;;;;;;;2.50;2.40;;;11.70;43.40;;;;;;6218244;23;20423;-79
2022/04/17 19:42:50;;;;;;;2.50;2.30;;;11.60;43.60;;;;;;6219438;23;20412;-79
2022/04/17 19:49:13;;;;;;;2.00;1.90;;;11.50;44.40;;;;;;6187554;23;20426;-80
2022/04/17 19:52:22;;;;;;;2.50;2.27;;;11.50;44.70;;;;;;6217578;23;20392;-79
2022/04/17 19:58:27;;;;;;;2.60;2.40;;;11.40;45.30;;;;;;6187651;23;20442;-80
2022/04/17 20:01:09;;;;;;;2.20;2.10;;;11.30;45.20;;;;;;6216190;23;20770;-79
2022/04/17 20:03:46;;;;;;;2.83;2.00;;;11.20;44.90;;;;;;6218764;23;20396;-80
2022/04/17 20:06:13;;;;;;;2.30;2.10;;;11.20;45.20;;;;;;6218807;23;20435;-80
2022/04/17 20:08:45;;;;;;;3.40;2.83;;;11.20;45.50;;;;;;6218449;23;20412;-79
2022/04/17 20:11:12;;;;;;;2.83;2.63;;;11.10;45.70;;;;;;6218794;23;20728;-80
2022/04/17 20:13:40;;;;;;;2.60;2.40;;;11.10;45.80;;;;;;6220041;23;20413;-80
2022/04/17 20:16:08;;;;;;;4.27;2.60;;;11.00;46.00;;;;;;6219872;23;20459;-80
2022/04/17 20:18:36;;;;;;;2.57;1.97;;;10.90;45.90;;;;;;6219788;23;20411;-80
2022/04/17 20:21:03;;;;;;;3.43;3.23;;;10.80;45.70;;;;;;6218710;23;20438;-79
2022/04/17 20:23:29;;;;;;;6.57;2.90;;;10.80;46.00;;;;;;6219782;23;20428;-79
2022/04/17 20:25:56;;;;;;;2.30;2.20;;;10.80;46.20;;;;;;6218662;23;20438;-79
2022/04/17 20:28:23;;;;;;;3.60;3.30;;;10.80;46.40;;;;;;6218842;23;20416;-79
2022/04/17 20:30:49;;;;;;;3.33;3.00;;;10.70;46.30;;;;;;6218440;23;20704;-79
2022/04/17 20:33:18;;;;;;;2.53;2.43;;;10.60;46.40;;;;;;6219000;23;20725;-79
2022/04/17 20:35:46;;;;;;;3.17;2.87;;;10.60;46.60;;;;;;6218048;23;20837;-79
2022/04/17 20:38:12;;;;;;;3.40;3.20;;;10.60;46.90;;;;;;6218479;23;20414;-79
2022/04/17 20:40:39;;;;;;;2.60;2.50;;;10.50;47.00;;;;;;6217856;23;20443;-79
2022/04/17 20:51:17;;;;;;;3.90;2.77;;;10.30;47.60;;;;;;6217629;23;20418;-79
2022/04/17 20:53:44;;;;;;;2.43;2.33;;;10.20;47.60;;;;;;6218287;23;20407;-79
2022/04/17 20:56:44;;;;;;;4.30;3.90;;;10.10;47.80;;;;;;6216877;22;20961;-79
2022/04/17 20:59:38;;;;;;;2.47;2.37;;;10.10;47.70;;;;;;6214768;23;20428;-79
2022/04/17 21:02:16;;;;;;;3.43;3.23;;;10.10;48.10;;;;;;6218384;23;20462;-79
2022/04/17 21:04:48;;;;;;;3.30;2.60;;;10.10;48.50;;;;;;6217993;23;20411;-79
2022/04/17 21:07:16;;;;;;;4.17;3.83;;;10.00;48.00;;;;;;6187622;23;20424;-79
2022/04/17 21:09:43;;;;;;;3.13;2.88;;;10.00;48.20;;;;;;6189064;23;20409;-80
2022/04/17 21:12:10;;;;;;;3.37;3.17;;;9.90;49.20;;;;;;6189295;23;20505;-79
2022/04/17 21:14:37;;;;;;;2.80;2.60;;;9.90;49.70;;;;;;6190205;23;20433;-80
2022/04/17 21:17:04;;;;;;;3.33;3.03;;;9.80;49.60;;;;;;6189273;23;20491;-80
2022/04/17 21:19:30;;;;;;;3.17;2.92;;;9.80;49.70;;;;;;6189628;23;20674;-80
2022/04/17 21:22:00;;;;;;;2.97;2.70;;;9.80;49.80;;;;;;6188936;23;20546;-81
2022/04/17 21:24:27;;;;;;;3.10;2.60;;;9.70;49.80;;;;;;6189690;23;20180;-80
2022/04/17 21:26:53;;;;;;;3.57;3.03;;;9.70;49.90;;;;;;6189311;23;20438;-80
2022/04/17 21:29:20;;;;;;;2.75;2.53;;;9.60;50.10;;;;;;6189174;23;20406;-80
2022/04/17 21:31:49;;;;;;;3.42;3.20;;;9.60;50.20;;;;;;6189816;23;20192;-82
2022/04/17 21:34:16;;;;;;;3.28;2.97;;;9.50;50.40;;;;;;6191411;23;20180;-81
2022/04/17 21:36:43;;;;;;;3.28;2.70;;;9.50;50.60;;;;;;6193959;23;20530;-81
2022/04/17 21:39:11;;;;;;;4.63;4.22;;;9.40;51.00;;;;;;6196191;23;20194;-81
2022/04/17 21:41:40;;;;;;;4.63;3.63;;;9.40;51.50;;;;;;6198903;23;20200;-81
2022/04/17 21:44:07;;;;;;;3.95;3.65;;;9.40;51.50;;;;;;6197397;23;20415;-81
2022/04/17 21:46:34;;;;;;;3.72;3.42;;;9.30;51.50;;;;;;6191434;23;20217;-82
2022/04/17 21:49:00;;;;;;;3.35;3.05;;;9.30;51.70;;;;;;6191148;23;20184;-82
2022/04/17 21:51:27;;;;;;;3.67;3.35;;;9.20;52.00;;;;;;6190945;23;20748;-82
2022/04/17 21:53:54;;;;;;;3.28;3.08;;;9.20;52.00;;;;;;6190602;23;20179;-82
2022/04/17 21:56:22;;;;;;;3.25;2.95;;;9.10;52.10;;;;;;6190579;23;20215;-81
2022/04/17 21:58:49;;;;;;;3.47;3.20;;;9.10;52.50;;;;;;6190210;23;20504;-81
2022/04/17 22:06:44;;;;;;;3.60;3.30;;;8.90;53.10;;;;;;6191023;23;20198;-81
2022/04/17 22:09:12;;;;;;;3.20;3.00;;;8.90;53.50;;;;;;6190610;23;20183;-81
2022/04/17 22:11:40;;;;;;;4.25;3.85;;;8.80;53.60;;;;;;6190280;23;20185;-81
2022/04/17 22:14:07;;;;;;;5.03;3.85;;;8.80;53.80;;;;;;6189708;23;20190;-82
2022/04/17 22:16:33;;;;;;;3.55;3.25;;;8.70;54.00;;;;;;6190251;23;20206;-81
2022/04/17 22:19:00;;;;;;;3.55;3.25;;;8.70;54.10;;;;;;6190177;23;20639;-82
2022/04/17 22:21:27;;;;;;;4.00;3.35;;;8.70;54.40;;;;;;6190197;23;20202;-82
2022/04/17 22:23:53;;;;;;;3.10;2.90;;;8.60;54.30;;;;;;6190190;23;20187;-82
2022/04/17 22:26:20;;;;;;;3.20;3.00;;;8.60;54.60;;;;;;6190254;23;20695;-81
2022/04/17 22:28:48;;;;;;;4.07;3.70;;;8.50;55.20;;;;;;6190098;23;20179;-81
2022/04/17 22:31:15;;;;;;;3.85;3.35;;;8.50;55.60;;;;;;6191393;23;20178;-81
2022/04/17 22:33:42;;;;;;;3.50;3.30;;;8.40;56.10;;;;;;6192504;23;20520;-82
2022/04/17 22:36:12;;;;;;;4.05;3.65;;;8.30;56.50;;;;;;6191689;23;20273;-82
2022/04/17 22:38:40;;;;;;;4.97;3.50;;;8.30;56.90;;;;;;6192651;23;20178;-82
2022/04/17 22:41:07;;;;;;;6.05;3.80;;;8.30;57.50;;;;;;6191651;23;20249;-82
2022/04/17 22:43:35;;;;;;;4.78;4.38;;;8.30;57.80;;;;;;6192279;23;20183;-82
2022/04/17 22:46:03;;;;;;;5.53;5.13;;;8.20;57.70;;;;;;6191873;23;20210;-81
2022/04/17 22:48:30;;;;;;;5.43;4.32;;;8.10;58.10;;;;;;6191794;23;20246;-82
2022/04/17 22:50:56;;;;;;;4.03;3.70;;;8.10;58.40;;;;;;6192496;23;20179;-81
2022/04/17 22:53:23;;;;;;;3.80;3.50;;;8.10;58.20;;;;;;6192094;23;20183;-81
2022/04/17 22:55:54;;;;;;;4.63;4.30;;;8.00;58.10;;;;;;6191223;23;20205;-81
2022/04/17 22:58:21;;;;;;;4.13;3.83;;;8.00;58.70;;;;;;6191218;23;20168;-81
2022/04/17 23:03:40;;;;;;;4.35;3.92;;;7.90;59.30;;;;;;6191755;23;20186;-81
2022/04/17 23:06:08;;;;;;;6.30;3.90;;;7.80;59.60;;;;;;6192028;23;20198;-81
2022/04/17 23:08:34;;;;;;;4.75;4.35;;;7.80;59.80;;;;;;6191284;23;20189;-81
2022/04/17 23:11:01;;;;;;;3.97;3.67;;;7.80;59.90;;;;;;6191415;23;20182;-82
2022/04/17 23:13:28;;;;;;;5.78;4.40;;;7.80;60.20;;;;;;6192451;23;20179;-81
2022/04/17 23:15:55;;;;;;;3.83;3.50;;;7.70;60.30;;;;;;6191130;23;20203;-81
2022/04/17 23:18:21;;;;;;;3.95;3.38;;;7.70;60.50;;;;;;6191548;23;20183;-81
2022/04/17 23:20:49;;;;;;;3.65;3.35;;;7.60;60.30;;;;;;6190933;23;20182;-80
2022/04/17 23:23:16;;;;;;;4.85;4.10;;;7.60;60.70;;;;;;6190523;23;20182;-81
2022/04/17 23:25:43;;;;;;;3.35;3.05;;;7.60;62.10;;;;;;6190813;23;20206;-80
2022/04/17 23:28:10;;;;;;;3.45;3.15;;;7.60;61.90;;;;;;6191292;23;20186;-80
2022/04/17 23:30:37;;;;;;;3.25;2.95;;;7.50;62.40;;;;;;6190715;23;20189;-80
2022/04/17 23:33:03;;;;;;;4.05;3.75;;;7.50;62.70;;;;;;6191625;23;20183;-80
2022/04/17 23:35:30;;;;;;;3.92;3.20;;;7.50;62.40;;;;;;6190598;23;20211;-80
2022/04/17 23:37:58;;;;;;;4.07;3.58;;;7.50;62.40;;;;;;6190930;23;20193;-80
2022/04/17 23:40:25;;;;;;;4.70;3.78;;;7.40;62.50;;;;;;6191627;23;20992;-80
2022/04/17 23:42:52;;;;;;;3.65;3.40;;;7.30;62.80;;;;;;6191598;23;20202;-80
2022/04/17 23:45:19;;;;;;;4.25;3.80;;;7.30;63.30;;;;;;6191523;23;20213;-80
2022/04/17 23:47:46;;;;;;;3.17;2.97;;;7.30;63.70;;;;;;6191402;23;20182;-80
2022/04/17 23:50:13;;;;;;;5.28;4.60;;;7.30;64.10;;;;;;6190591;23;20182;-80
2022/04/17 23:52:39;;;;;;;4.90;4.40;;;7.20;64.60;;;;;;6191318;23;20178;-80
2022/04/17 23:55:09;;;;;;;3.75;3.45;;;7.20;65.30;;;;;;6191102;23;20198;-80
2022/04/17 23:57:36;;;;;;;4.70;4.40;;;7.20;66.50;;;;;;6190236;23;20277;-80
